Szafir — 5BFC3 — position and weather

sailwx.info

Track history (hours):
 
Tides and Currents Weather Stations Pressure Air Temp Water Temp Dewpoint Dewpoint Depression Visibility Wind Speed Wind Dir Waves Ship Positions

Szafir

Last reported at 2015-Jul-02 13:33 UTC. Time now 2015-Jul-08 00:05 UTC.
Position N 27°12' W 014°23'.

Length 113 m; draft 8.4 m.

Type: Ship. MMSI: 209366000.

Date/timePositionNaut miles runAvg speedWind from/ knotsBaromVisibWave heightAir tempDewpointWater temp
2015-Jul-02 13:33N 27°12' W 014°23'3113.1
2015-Jul-02 11:09N 27°41' W 014°10'1313.3
2015-Jul-02 10:11N 27°52' W 014°03'812.9
2015-Jul-02 09:33N 27°59' W 013°58'3313.1
2015-Jul-02 07:04N 28°27' W 013°40'713.0
2015-Jul-02 06:33N 28°33' W 013°36'1413.0
2015-Jul-02 05:28N 28°45' W 013°28'1212.9
2015-Jul-02 04:31N 28°56' W 013°22'1512.7
2015-Jul-02 03:18N 29°10' W 013°13'39012.5
2015-Jun-30 20:11N 35°35' W 011°60'8312.4
2015-Jun-30 13:29N 36°57' W 011°42'3812.5
2015-Jun-30 10:25N 37°35' W 011°35'1212.5
2015-Jun-30 09:29N 37°46' W 011°33'1512.6
2015-Jun-30 08:17N 38°01' W 011°30'4712.7
2015-Jun-30 04:33N 38°48' W 011°20'1212.5
2015-Jun-30 03:33N 38°60' W 011°18'1212.5
2015-Jun-30 02:33N 39°12' W 011°15'1212.1
2015-Jun-30 01:33N 39°24' W 011°13'1212.3
2015-Jun-30 00:33N 39°36' W 011°10'1312.8
2015-Jun-29 23:33N 39°49' W 011°07'1312.7
2015-Jun-29 22:34N 40°02' W 011°05'1312.6
2015-Jun-29 21:33N 40°14' W 011°03'1212.4
2015-Jun-29 20:33N 40°26' W 011°00'1312.6
2015-Jun-29 19:32N 40°39' W 010°57'1312.7
2015-Jun-29 18:33N 40°52' W 010°55'1212.4
2015-Jun-29 17:33N 41°04' W 010°53'1212.3
2015-Jun-29 16:33N 41°16' W 010°50'1412.3
2015-Jun-29 15:26N 41°30' W 010°47'1112.6
2015-Jun-29 14:33N 41°41' W 010°44'3712.4
2015-Jun-29 11:33N 42°17' W 010°39'1212.4
2015-Jun-29 10:33N 42°30' W 010°36'1212.2
2015-Jun-29 09:33N 42°42' W 010°34'34712.0
2015-Jun-28 04:33N 47°49' W 006°47'2512.3
2015-Jun-28 02:33N 48°10' W 006°27'19811.4
2015-Jun-27 09:08N 50°06' W 002°21'2113.0
2015-Jun-27 07:33N 50°10' W 001°50'9111.1
2015-Jun-26 23:23N 50°36' E 000°27'1012.4
2015-Jun-26 22:33N 50°41' E 000°41'1211.7
2015-Jun-26 21:33N 50°48' E 000°56'1210.9
2015-Jun-26 20:28N 50°56' E 001°11'910.1
2015-Jun-26 19:32N 51°02' E 001°22'1010.0
2015-Jun-26 18:33N 51°08' E 001°34'1110.6
2015-Jun-26 17:33N 51°15' E 001°47'1212.0
2015-Jun-26 16:33N 51°25' E 001°57'1312.6
2015-Jun-26 15:34N 51°35' E 002°09'1312.5
2015-Jun-26 14:33N 51°44' E 002°23'1312.6
2015-Jun-26 13:33N 51°54' E 002°36'1212.3
2015-Jun-26 12:33N 52°03' E 002°49'1211.7
2015-Jun-26 11:33N 52°12' E 003°01'1111.3
2015-Jun-26 10:33N 52°21' E 003°12'1111.0
2015-Jun-26 09:33N 52°30' E 003°23'1110.9
2015-Jun-26 08:32N 52°39' E 003°35'1111.5
2015-Jun-26 07:33N 52°48' E 003°46'1312.4
2015-Jun-26 06:32N 52°57' E 004°00'1312.9
2015-Jun-26 05:33N 53°06' E 004°16'1312.7
2015-Jun-26 04:34N 53°16' E 004°27'3712.1
2015-Jun-26 01:29N 53°51' E 004°49'1111.8
2015-Jun-26 00:33N 54°01' E 004°55'1311.8
2015-Jun-25 23:27N 54°13' E 005°06'28710.3
2015-Jun-24 19:33N 57°45' E 010°52'1010.4
2015-Jun-24 18:33N 57°38' E 011°06'1111.0
2015-Jun-24 17:33N 57°30' E 011°21'1111.1
2015-Jun-24 16:34N 57°21' E 011°31'1111.4
2015-Jun-24 15:33N 57°10' E 011°38'1111.4
2015-Jun-24 14:33N 56°59' E 011°45'1111.0
2015-Jun-24 13:33N 56°49' E 011°51'1110.7
2015-Jun-24 12:33N 56°38' E 011°46'8011.1
2015-Jun-24 05:18N 55°22' E 011°02'4410.7
2015-Jun-24 01:13N 54°38' E 011°04'811.4
2015-Jun-24 00:33N 54°34' E 011°15'1211.5
2015-Jun-23 23:33N 54°30' E 011°34'1111.3
2015-Jun-23 22:33N 54°27' E 011°52'1111.1
2015-Jun-23 21:34N 54°29' E 012°11'  
Track history (hours):
 
Tides and Currents Weather Stations Pressure Air Temp Water Temp Dewpoint Dewpoint Depression Visibility Wind Speed Wind Dir Waves Ship Positions

Szafir

Last reported at 2015-Jul-02 13:33 UTC. Time now 2015-Jul-08 00:05 UTC.
Position N 27°12' W 014°23'.

Length 113 m; draft 8.4 m.

Type: Ship. MMSI: 209366000.

Date/timePositionNaut miles runAvg speedWind from/ knotsBaromVisibWave heightAir tempDewpointWater temp
2015-Jul-02 13:33N 27°12' W 014°23'3113.1
2015-Jul-02 11:09N 27°41' W 014°10'1313.3
2015-Jul-02 10:11N 27°52' W 014°03'812.9
2015-Jul-02 09:33N 27°59' W 013°58'3313.1
2015-Jul-02 07:04N 28°27' W 013°40'713.0
2015-Jul-02 06:33N 28°33' W 013°36'1413.0
2015-Jul-02 05:28N 28°45' W 013°28'1212.9
2015-Jul-02 04:31N 28°56' W 013°22'1512.7
2015-Jul-02 03:18N 29°10' W 013°13'39012.5
2015-Jun-30 20:11N 35°35' W 011°60'8312.4
2015-Jun-30 13:29N 36°57' W 011°42'3812.5
2015-Jun-30 10:25N 37°35' W 011°35'1212.5
2015-Jun-30 09:29N 37°46' W 011°33'1512.6
2015-Jun-30 08:17N 38°01' W 011°30'4712.7
2015-Jun-30 04:33N 38°48' W 011°20'1212.5
2015-Jun-30 03:33N 38°60' W 011°18'1212.5
2015-Jun-30 02:33N 39°12' W 011°15'1212.1
2015-Jun-30 01:33N 39°24' W 011°13'1212.3
2015-Jun-30 00:33N 39°36' W 011°10'1312.8
2015-Jun-29 23:33N 39°49' W 011°07'1312.7
2015-Jun-29 22:34N 40°02' W 011°05'1312.6
2015-Jun-29 21:33N 40°14' W 011°03'1212.4
2015-Jun-29 20:33N 40°26' W 011°00'1312.6
2015-Jun-29 19:32N 40°39' W 010°57'1312.7
2015-Jun-29 18:33N 40°52' W 010°55'1212.4
2015-Jun-29 17:33N 41°04' W 010°53'1212.3
2015-Jun-29 16:33N 41°16' W 010°50'1412.3
2015-Jun-29 15:26N 41°30' W 010°47'1112.6
2015-Jun-29 14:33N 41°41' W 010°44'3712.4
2015-Jun-29 11:33N 42°17' W 010°39'1212.4
2015-Jun-29 10:33N 42°30' W 010°36'1212.2
2015-Jun-29 09:33N 42°42' W 010°34'34712.0
2015-Jun-28 04:33N 47°49' W 006°47'2512.3
2015-Jun-28 02:33N 48°10' W 006°27'19811.4
2015-Jun-27 09:08N 50°06' W 002°21'2113.0
2015-Jun-27 07:33N 50°10' W 001°50'9111.1
2015-Jun-26 23:23N 50°36' E 000°27'1012.4
2015-Jun-26 22:33N 50°41' E 000°41'1211.7
2015-Jun-26 21:33N 50°48' E 000°56'1210.9
2015-Jun-26 20:28N 50°56' E 001°11'910.1
2015-Jun-26 19:32N 51°02' E 001°22'1010.0
2015-Jun-26 18:33N 51°08' E 001°34'1110.6
2015-Jun-26 17:33N 51°15' E 001°47'1212.0
2015-Jun-26 16:33N 51°25' E 001°57'1312.6
2015-Jun-26 15:34N 51°35' E 002°09'1312.5
2015-Jun-26 14:33N 51°44' E 002°23'1312.6
2015-Jun-26 13:33N 51°54' E 002°36'1212.3
2015-Jun-26 12:33N 52°03' E 002°49'1211.7
2015-Jun-26 11:33N 52°12' E 003°01'1111.3
2015-Jun-26 10:33N 52°21' E 003°12'1111.0
2015-Jun-26 09:33N 52°30' E 003°23'1110.9
2015-Jun-26 08:32N 52°39' E 003°35'1111.5
2015-Jun-26 07:33N 52°48' E 003°46'1312.4
2015-Jun-26 06:32N 52°57' E 004°00'1312.9
2015-Jun-26 05:33N 53°06' E 004°16'1312.7
2015-Jun-26 04:34N 53°16' E 004°27'3712.1
2015-Jun-26 01:29N 53°51' E 004°49'1111.8
2015-Jun-26 00:33N 54°01' E 004°55'1311.8
2015-Jun-25 23:27N 54°13' E 005°06'28710.3
2015-Jun-24 19:33N 57°45' E 010°52'1010.4
2015-Jun-24 18:33N 57°38' E 011°06'1111.0
2015-Jun-24 17:33N 57°30' E 011°21'1111.1
2015-Jun-24 16:34N 57°21' E 011°31'1111.4
2015-Jun-24 15:33N 57°10' E 011°38'1111.4
2015-Jun-24 14:33N 56°59' E 011°45'1111.0
2015-Jun-24 13:33N 56°49' E 011°51'1110.7
2015-Jun-24 12:33N 56°38' E 011°46'8011.1
2015-Jun-24 05:18N 55°22' E 011°02'4410.7
2015-Jun-24 01:13N 54°38' E 011°04'811.4
2015-Jun-24 00:33N 54°34' E 011°15'1211.5
2015-Jun-23 23:33N 54°30' E 011°34'1111.3
2015-Jun-23 22:33N 54°27' E 011°52'1111.1
2015-Jun-23 21:34N 54°29' E 012°11'  

Dump ship's entire track history